createdAt,value
2023-03-10T00:02:07.898Z,1.00
2023-03-10T00:04:34.729Z,0.90
2023-03-10T00:07:01.483Z,0.90
2023-03-10T00:09:28.240Z,0.90
2023-03-10T00:11:55.017Z,0.90
2023-03-10T00:14:21.744Z,0.90
2023-03-10T00:16:48.478Z,0.90
2023-03-10T00:19:15.316Z,0.90
2023-03-10T00:21:42.054Z,0.80
2023-03-10T00:24:09.399Z,0.80
2023-03-10T00:26:37.612Z,0.80
2023-03-10T00:29:04.993Z,0.90
2023-03-10T00:31:31.845Z,0.90
2023-03-10T00:33:59.005Z,0.90
2023-03-10T00:36:26.866Z,0.90
2023-03-10T00:38:54.694Z,0.80
2023-03-10T00:41:23.117Z,0.80
2023-03-10T00:43:50.095Z,0.70
2023-03-10T00:46:17.326Z,0.60
2023-03-10T00:48:44.403Z,0.50
2023-03-10T00:51:11.737Z,0.50
2023-03-10T00:53:39.485Z,0.40
2023-03-10T00:56:06.274Z,0.40
2023-03-10T00:58:33.596Z,0.40
2023-03-10T01:01:01.234Z,0.40
2023-03-10T01:03:28.310Z,0.40
2023-03-10T01:05:55.985Z,0.50
2023-03-10T01:08:23.164Z,0.50
2023-03-10T01:10:50.480Z,0.60
2023-03-10T01:13:17.941Z,0.60
2023-03-10T01:15:45.077Z,0.60
2023-03-10T01:18:12.035Z,0.60
2023-03-10T01:20:41.649Z,0.70
2023-03-10T01:23:13.009Z,0.60
2023-03-10T01:25:39.880Z,0.60
2023-03-10T01:28:06.652Z,0.50
2023-03-10T01:30:33.464Z,0.50
2023-03-10T01:33:00.430Z,0.40
2023-03-10T01:35:27.215Z,0.30
2023-03-10T01:37:54.900Z,0.20
2023-03-10T01:40:21.855Z,0.10
2023-03-10T01:42:48.706Z,0.10
2023-03-10T01:45:15.537Z,0.10
2023-03-10T01:47:43.195Z,0.10
2023-03-10T01:50:15.190Z,0.10
2023-03-10T01:52:44.090Z,0.10
2023-03-10T01:55:15.349Z,0.00
2023-03-10T01:57:52.714Z,0.10
2023-03-10T02:00:20.152Z,0.10
2023-03-10T02:02:49.622Z,0.10
2023-03-10T02:05:16.556Z,0.10
2023-03-10T02:07:43.405Z,0.10
2023-03-10T02:10:13.022Z,0.10
2023-03-10T02:12:39.809Z,0.00
2023-03-10T02:15:07.284Z,0.00
2023-03-10T02:17:34.309Z,0.00
2023-03-10T02:20:16.695Z,0.00
2023-03-10T02:22:43.486Z,0.00
2023-03-10T02:25:10.251Z,0.00
2023-03-10T02:27:38.180Z,0.10
2023-03-10T02:30:25.722Z,0.10
2023-03-10T02:32:54.322Z,0.20
2023-03-10T02:35:21.525Z,0.30
2023-03-10T02:37:50.899Z,0.30
2023-03-10T02:40:41.051Z,0.30
2023-03-10T02:43:11.762Z,0.30
2023-03-10T02:45:39.557Z,0.20
2023-03-10T02:48:08.106Z,0.10
2023-03-10T02:50:36.822Z,0.10
2023-03-10T02:53:32.904Z,0.00
2023-03-10T02:56:00.182Z,0.00
2023-03-10T02:58:27.978Z,0.00
2023-03-10T03:00:54.767Z,0.00
2023-03-10T03:03:21.684Z,0.00
2023-03-10T03:05:49.518Z,-0.10
2023-03-10T03:08:17.251Z,-0.10
2023-03-10T03:10:44.193Z,-0.10
2023-03-10T03:13:11.031Z,-0.10
2023-03-10T03:15:37.849Z,-0.10
2023-03-10T03:18:05.092Z,-0.10
2023-03-10T03:20:32.342Z,-0.10
2023-03-10T03:22:59.273Z,-0.10
2023-03-10T03:25:26.814Z,-0.20
2023-03-10T03:27:53.933Z,-0.20
2023-03-10T03:30:25.395Z,-0.20
2023-03-10T03:32:53.042Z,-0.10
2023-03-10T03:35:21.237Z,-0.10
2023-03-10T03:37:48.045Z,0.00
2023-03-10T03:40:14.967Z,0.10
2023-03-10T03:42:42.730Z,0.20
2023-03-10T03:45:10.141Z,0.30
2023-03-10T03:47:36.897Z,0.40
2023-03-10T03:50:04.234Z,0.40
2023-03-10T03:52:31.026Z,0.40
2023-03-10T03:54:57.950Z,0.40
2023-03-10T03:57:24.770Z,0.30
2023-03-10T03:59:51.728Z,0.30
2023-03-10T04:02:18.773Z,0.20
2023-03-10T04:04:45.656Z,0.10
2023-03-10T04:07:12.500Z,0.10
2023-03-10T04:09:39.955Z,0.10
2023-03-10T04:12:07.331Z,0.00
2023-03-10T04:14:34.932Z,0.00
2023-03-10T04:17:02.074Z,-0.10
2023-03-10T04:19:28.868Z,-0.10
2023-03-10T04:21:55.647Z,-0.10
2023-03-10T04:24:22.755Z,-0.10
2023-03-10T04:26:49.532Z,-0.10
2023-03-10T04:29:16.322Z,-0.20
2023-03-10T04:31:46.537Z,-0.20
2023-03-10T04:34:17.714Z,-0.30
2023-03-10T04:36:44.444Z,-0.30
2023-03-10T04:39:11.253Z,-0.30
2023-03-10T04:41:38.025Z,-0.30
2023-03-10T04:44:04.856Z,-0.30
2023-03-10T04:46:34.573Z,-0.30
2023-03-10T04:49:01.402Z,-0.40
2023-03-10T04:51:28.130Z,-0.40
2023-03-10T04:53:55.068Z,-0.40
2023-03-10T04:56:21.885Z,-0.40
2023-03-10T04:58:48.761Z,-0.40
2023-03-10T05:01:15.932Z,-0.40
2023-03-10T05:03:42.922Z,-0.40
2023-03-10T05:06:17.682Z,-0.50
2023-03-10T05:08:44.482Z,-0.50
2023-03-10T05:11:11.525Z,-0.50
2023-03-10T05:13:38.375Z,-0.50
2023-03-10T05:16:05.460Z,-0.60
2023-03-10T05:18:32.217Z,-0.50
2023-03-10T05:20:58.978Z,-0.60
2023-03-10T05:23:25.823Z,-0.60
2023-03-10T05:25:52.585Z,-0.60
2023-03-10T05:28:19.339Z,-0.60
2023-03-10T05:30:46.213Z,-0.60
2023-03-10T05:33:12.939Z,-0.60
2023-03-10T05:35:39.721Z,-0.60
2023-03-10T05:38:06.508Z,-0.60
2023-03-10T05:40:33.242Z,-0.60
2023-03-10T05:43:01.133Z,-0.60
2023-03-10T05:45:28.008Z,-0.60
2023-03-10T05:47:54.790Z,-0.60
2023-03-10T05:50:21.537Z,-0.70
2023-03-10T05:52:48.340Z,-0.70
2023-03-10T05:55:16.176Z,-0.70
2023-03-10T05:57:42.981Z,-0.70
2023-03-10T06:00:10.794Z,-0.70
2023-03-10T06:02:39.153Z,-0.60
2023-03-10T06:05:09.595Z,-0.60
2023-03-10T06:07:37.715Z,-0.60
2023-03-10T06:10:05.724Z,-0.50
2023-03-10T06:12:32.986Z,-0.40
2023-03-10T06:14:59.795Z,-0.40
2023-03-10T06:17:26.549Z,-0.50
2023-03-10T06:19:53.368Z,-0.50
2023-03-10T06:22:20.168Z,-0.60
2023-03-10T06:24:46.942Z,-0.60
2023-03-10T06:27:13.684Z,-0.60
2023-03-10T06:29:40.478Z,-0.60
2023-03-10T06:32:07.320Z,-0.70
2023-03-10T06:34:34.127Z,-0.70
2023-03-10T06:37:00.920Z,-0.70
2023-03-10T06:39:29.104Z,-0.70
2023-03-10T06:41:55.903Z,-0.70
2023-03-10T06:44:22.748Z,-0.70
2023-03-10T06:46:49.749Z,-0.60
2023-03-10T06:49:16.520Z,-0.60
2023-03-10T06:51:43.285Z,-0.60
2023-03-10T06:54:10.082Z,-0.60
2023-03-10T06:56:36.848Z,-0.60
2023-03-10T06:59:03.847Z,-0.60
2023-03-10T07:01:32.965Z,-0.70
2023-03-10T07:04:01.168Z,-0.70
2023-03-10T07:06:28.006Z,-0.70
2023-03-10T07:08:55.029Z,-0.70
2023-03-10T07:11:22.517Z,-0.70
2023-03-10T07:13:49.589Z,-0.70
2023-03-10T07:16:16.504Z,-0.60
2023-03-10T07:18:43.301Z,-0.60
2023-03-10T07:21:11.513Z,-0.60
2023-03-10T07:23:38.583Z,-0.60
2023-03-10T07:26:08.047Z,-0.60
2023-03-10T07:28:35.746Z,-0.60
2023-03-10T07:31:03.652Z,-0.60
2023-03-10T07:33:30.474Z,-0.60
2023-03-10T07:35:57.307Z,-0.70
2023-03-10T07:38:24.082Z,-0.70
2023-03-10T07:40:50.968Z,-0.70
2023-03-10T07:43:17.722Z,-0.70
2023-03-10T07:45:44.660Z,-0.60
2023-03-10T07:48:11.402Z,-0.60
2023-03-10T07:50:38.189Z,-0.60
2023-03-10T07:55:34.997Z,-0.60
2023-03-10T07:58:01.805Z,-0.50
2023-03-10T08:00:28.702Z,-0.50
2023-03-10T08:02:55.466Z,-0.50
2023-03-10T08:05:22.314Z,-0.50
2023-03-10T08:07:49.133Z,-0.40
2023-03-10T08:10:15.904Z,-0.30
2023-03-10T08:12:42.679Z,-0.20
2023-03-10T08:15:11.112Z,-0.20
2023-03-10T08:17:38.050Z,-0.10
2023-03-10T08:20:06.693Z,0.00
2023-03-10T08:22:33.781Z,0.10
2023-03-10T08:25:00.894Z,0.10
2023-03-10T08:27:29.134Z,0.20
2023-03-10T08:29:56.140Z,0.30
2023-03-10T08:32:22.919Z,0.40
2023-03-10T08:34:49.730Z,0.50
2023-03-10T08:37:16.536Z,0.60
2023-03-10T08:39:43.354Z,0.70
2023-03-10T08:42:11.962Z,0.80
2023-03-10T08:44:39.059Z,0.80
2023-03-10T08:47:06.096Z,1.00
2023-03-10T08:49:33.430Z,1.00
2023-03-10T08:52:00.509Z,1.00
2023-03-10T18:53:45.330Z,2.50
2023-03-10T18:56:12.068Z,2.50
2023-03-10T18:58:38.794Z,2.40
2023-03-10T19:01:12.402Z,2.30
2023-03-10T19:03:39.743Z,2.20
2023-03-10T19:06:06.853Z,2.10
2023-03-10T19:08:37.345Z,2.00
2023-03-10T19:11:05.088Z,2.00
2023-03-10T19:13:31.830Z,1.90
2023-03-10T19:15:58.978Z,1.80
2023-03-10T19:18:25.747Z,1.80
2023-03-10T19:20:58.414Z,1.80
2023-03-10T19:23:25.261Z,1.80
2023-03-10T19:25:52.126Z,1.70
2023-03-10T19:28:19.087Z,1.60
2023-03-10T19:30:45.858Z,1.60
2023-03-10T19:33:12.581Z,1.50
2023-03-10T19:35:39.361Z,1.50
2023-03-10T19:38:06.152Z,1.50
2023-03-10T19:40:32.939Z,1.30
2023-03-10T19:42:59.745Z,1.30
2023-03-10T19:45:26.560Z,1.20
2023-03-10T19:47:54.616Z,1.20
2023-03-10T19:50:21.626Z,1.30
2023-03-10T19:52:49.446Z,1.30
2023-03-10T19:55:19.648Z,1.20
2023-03-10T19:57:48.327Z,1.10
2023-03-10T20:00:16.422Z,1.10
2023-03-10T20:02:46.021Z,1.00
2023-03-10T20:05:16.033Z,0.90
2023-03-10T20:07:46.115Z,0.90
2023-03-10T20:10:14.218Z,0.80
2023-03-10T20:12:41.043Z,0.80
2023-03-10T20:15:08.232Z,0.80
2023-03-10T20:17:35.385Z,0.70
2023-03-10T20:20:09.966Z,0.70
2023-03-10T20:22:40.607Z,0.70
2023-03-10T20:25:08.670Z,0.70
2023-03-10T20:27:35.516Z,0.70
2023-03-10T20:30:04.907Z,0.70
2023-03-10T20:32:31.702Z,0.60
2023-03-10T20:34:58.490Z,0.50
2023-03-10T20:37:25.232Z,0.50
2023-03-10T20:39:51.998Z,0.50
2023-03-10T20:42:18.822Z,0.50
2023-03-10T20:44:45.554Z,0.40
2023-03-10T20:47:12.352Z,0.40
2023-03-10T20:49:39.126Z,0.40
2023-03-10T20:52:05.860Z,0.30
2023-03-10T20:54:32.583Z,0.30
2023-03-10T20:56:59.340Z,0.30
2023-03-10T20:59:26.067Z,0.30
2023-03-10T21:01:52.880Z,0.30
2023-03-10T21:04:20.106Z,0.40
2023-03-10T21:06:47.237Z,0.30
2023-03-10T21:09:14.043Z,0.30
2023-03-10T21:11:41.446Z,0.20
2023-03-10T21:14:08.196Z,0.20
2023-03-10T21:16:39.644Z,0.20
2023-03-10T21:19:06.481Z,0.10
2023-03-10T21:21:34.680Z,0.10
2023-03-10T21:24:02.058Z,0.00
2023-03-10T21:26:28.923Z,-0.10
2023-03-10T21:28:55.761Z,-0.10
2023-03-10T21:31:23.469Z,-0.10
2023-03-10T21:33:50.403Z,-0.20
2023-03-10T21:36:18.756Z,-0.20
2023-03-10T21:38:48.782Z,-0.30
2023-03-10T21:41:16.763Z,-0.30
2023-03-10T21:43:43.508Z,-0.30
2023-03-10T21:46:11.174Z,-0.20
2023-03-10T21:48:38.078Z,-0.20
2023-03-10T21:51:04.979Z,-0.20
2023-03-10T21:53:31.824Z,-0.20
2023-03-10T21:56:00.679Z,-0.20
2023-03-10T21:58:27.642Z,-0.30
2023-03-10T22:00:56.155Z,-0.30
2023-03-10T22:03:23.178Z,-0.30
2023-03-10T22:05:52.001Z,-0.30
2023-03-10T22:08:18.835Z,-0.30
2023-03-10T22:10:45.986Z,-0.30
2023-03-10T22:13:12.785Z,-0.30
2023-03-10T22:15:39.691Z,-0.30
2023-03-10T22:18:06.509Z,-0.40
2023-03-10T22:20:33.365Z,-0.40
2023-03-10T22:23:00.220Z,-0.40
2023-03-10T22:25:27.117Z,-0.30
2023-03-10T22:27:55.333Z,-0.40
2023-03-10T22:30:23.367Z,-0.30
2023-03-10T22:32:50.237Z,-0.10
2023-03-10T22:35:17.577Z,0.10
2023-03-10T22:37:44.449Z,0.20
2023-03-10T22:40:16.318Z,0.30
2023-03-10T22:42:43.702Z,0.30
2023-03-10T22:45:15.627Z,0.30
2023-03-10T22:47:42.410Z,0.40
2023-03-10T22:50:10.948Z,0.50
2023-03-10T22:52:37.673Z,0.70
2023-03-10T22:55:04.681Z,0.70
2023-03-10T22:57:31.428Z,0.90
2023-03-10T22:59:58.162Z,1.00
2023-03-10T23:02:24.943Z,1.00
2023-03-10T23:04:51.680Z,1.00
2023-03-10T23:07:18.435Z,1.10
2023-03-10T23:09:45.178Z,1.10
2023-03-10T23:12:11.988Z,1.10
2023-03-10T23:14:38.749Z,1.20
2023-03-10T23:17:05.533Z,1.20
2023-03-10T23:19:34.707Z,1.20
2023-03-10T23:22:01.531Z,1.20
2023-03-10T23:24:28.305Z,1.20
2023-03-10T23:26:55.090Z,1.20
2023-03-10T23:29:21.931Z,1.20
2023-03-10T23:31:48.953Z,1.20
2023-03-10T23:34:15.765Z,1.20
2023-03-10T23:36:42.548Z,1.10
2023-03-10T23:39:13.459Z,1.10
2023-03-10T23:41:40.242Z,1.20
2023-03-10T23:44:06.977Z,1.30
2023-03-10T23:46:33.874Z,1.30
2023-03-10T23:49:00.616Z,1.30
2023-03-10T23:51:28.976Z,1.20
2023-03-10T23:53:55.762Z,1.20
2023-03-10T23:56:22.560Z,1.10
2023-03-10T23:58:49.292Z,1.10
